sensor_id;sensor_type;location;lat;lon;timestamp;pressure;altitude;pressure_sealevel;temperature;humidity
56038;BME280;41907;47.848;9.000;2023-07-29T00:01:49;95489.34;;;17.11;100.00
56038;BME280;41907;47.848;9.000;2023-07-29T00:04:15;95488.41;;;17.04;100.00
56038;BME280;41907;47.848;9.000;2023-07-29T00:06:40;95487.84;;;16.95;100.00
56038;BME280;41907;47.848;9.000;2023-07-29T00:09:05;95489.47;;;16.99;100.00
56038;BME280;41907;47.848;9.000;2023-07-29T00:11:31;95486.63;;;17.11;100.00
56038;BME280;41907;47.848;9.000;2023-07-29T00:13:59;95482.94;;;17.20;100.00
56038;BME280;41907;47.848;9.000;2023-07-29T00:16:25;95475.03;;;17.07;100.00
56038;BME280;41907;47.848;9.000;2023-07-29T00:18:51;95473.09;;;17.08;100.00
56038;BME280;41907;47.848;9.000;2023-07-29T00:21:16;95478.06;;;17.06;100.00
56038;BME280;41907;47.848;9.000;2023-07-29T00:23:42;95486.97;;;16.91;100.00
56038;BME280;41907;47.848;9.000;2023-07-29T00:26:07;95472.03;;;16.93;100.00
56038;BME280;41907;47.848;9.000;2023-07-29T00:28:32;95467.78;;;16.92;100.00
56038;BME280;41907;47.848;9.000;2023-07-29T00:30:58;95464.72;;;16.94;100.00
56038;BME280;41907;47.848;9.000;2023-07-29T00:33:23;95464.44;;;16.99;100.00
56038;BME280;41907;47.848;9.000;2023-07-29T00:35:49;95462.94;;;17.01;100.00
56038;BME280;41907;47.848;9.000;2023-07-29T00:38:14;95461.38;;;17.00;100.00
56038;BME280;41907;47.848;9.000;2023-07-29T00:40:39;95456.34;;;16.99;100.00
56038;BME280;41907;47.848;9.000;2023-07-29T00:43:05;95447.50;;;16.98;100.00
56038;BME280;41907;47.848;9.000;2023-07-29T00:45:32;95454.25;;;16.89;100.00
56038;BME280;41907;47.848;9.000;2023-07-29T00:47:58;95464.44;;;16.80;100.00
56038;BME280;41907;47.848;9.000;2023-07-29T00:50:25;95455.94;;;16.78;100.00
56038;BME280;41907;47.848;9.000;2023-07-29T00:52:53;95463.59;;;16.76;100.00
56038;BME280;41907;47.848;9.000;2023-07-29T00:55:18;95460.53;;;16.77;100.00
56038;BME280;41907;47.848;9.000;2023-07-29T00:57:44;95459.69;;;16.73;100.00
56038;BME280;41907;47.848;9.000;2023-07-29T01:00:14;95463.78;;;16.67;100.00
56038;BME280;41907;47.848;9.000;2023-07-29T01:02:39;95465.69;;;16.66;100.00
56038;BME280;41907;47.848;9.000;2023-07-29T01:05:05;95461.44;;;16.65;100.00
56038;BME280;41907;47.848;9.000;2023-07-29T01:17:51;95448.84;;;16.54;100.00
56038;BME280;41907;47.848;9.000;2023-07-29T01:20:19;95450.19;;;16.44;100.00
56038;BME280;41907;47.848;9.000;2023-07-29T01:22:46;95442.03;;;16.41;100.00
56038;BME280;41907;47.848;9.000;2023-07-29T01:25:13;95448.00;;;16.50;100.00
56038;BME280;41907;47.848;9.000;2023-07-29T01:27:39;95441.56;;;16.54;100.00
56038;BME280;41907;47.848;9.000;2023-07-29T01:30:05;95449.28;;;16.56;100.00
56038;BME280;41907;47.848;9.000;2023-07-29T01:32:50;95441.22;;;16.56;100.00
56038;BME280;41907;47.848;9.000;2023-07-29T01:35:28;95442.25;;;16.32;100.00
56038;BME280;41907;47.848;9.000;2023-07-29T01:38:05;95448.75;;;16.31;100.00
56038;BME280;41907;47.848;9.000;2023-07-29T01:40:33;95447.34;;;16.37;100.00
56038;BME280;41907;47.848;9.000;2023-07-29T01:42:58;95447.03;;;16.42;100.00
56038;BME280;41907;47.848;9.000;2023-07-29T01:45:25;95450.53;;;16.43;100.00
56038;BME280;41907;47.848;9.000;2023-07-29T01:47:51;95438.91;;;16.38;100.00
56038;BME280;41907;47.848;9.000;2023-07-29T01:50:16;95428.00;;;16.31;100.00
56038;BME280;41907;47.848;9.000;2023-07-29T01:52:42;95433.56;;;16.23;100.00
56038;BME280;41907;47.848;9.000;2023-07-29T01:55:07;95424.19;;;16.17;100.00
56038;BME280;41907;47.848;9.000;2023-07-29T01:57:33;95427.16;;;16.12;100.00
56038;BME280;41907;47.848;9.000;2023-07-29T01:59:58;95424.28;;;16.05;100.00
56038;BME280;41907;47.848;9.000;2023-07-29T02:02:24;95432.91;;;16.10;100.00
56038;BME280;41907;47.848;9.000;2023-07-29T02:04:49;95423.53;;;16.04;100.00
56038;BME280;41907;47.848;9.000;2023-07-29T02:07:17;95423.09;;;16.02;100.00
56038;BME280;41907;47.848;9.000;2023-07-29T02:09:43;95420.13;;;16.07;100.00
56038;BME280;41907;47.848;9.000;2023-07-29T02:12:08;95419.69;;;16.05;100.00
56038;BME280;41907;47.848;9.000;2023-07-29T02:14:34;95409.13;;;15.96;100.00
56038;BME280;41907;47.848;9.000;2023-07-29T02:16:59;95411.75;;;15.93;100.00
56038;BME280;41907;47.848;9.000;2023-07-29T02:19:24;95414.69;;;16.04;100.00
56038;BME280;41907;47.848;9.000;2023-07-29T02:21:50;95415.19;;;16.09;100.00
56038;BME280;41907;47.848;9.000;2023-07-29T02:24:15;95408.59;;;16.07;100.00
56038;BME280;41907;47.848;9.000;2023-07-29T02:26:41;95409.13;;;15.96;100.00
56038;BME280;41907;47.848;9.000;2023-07-29T02:29:07;95407.06;;;15.90;100.00
56038;BME280;41907;47.848;9.000;2023-07-29T02:31:32;95412.34;;;16.02;100.00
56038;BME280;41907;47.848;9.000;2023-07-29T02:33:57;95414.84;;;16.11;100.00
56038;BME280;41907;47.848;9.000;2023-07-29T02:36:23;95420.38;;;16.18;100.00
56038;BME280;41907;47.848;9.000;2023-07-29T02:38:48;95427.91;;;16.28;100.00
56038;BME280;41907;47.848;9.000;2023-07-29T02:41:14;95419.19;;;16.34;100.00
56038;BME280;41907;47.848;9.000;2023-07-29T02:43:42;95422.31;;;16.36;100.00
56038;BME280;41907;47.848;9.000;2023-07-29T02:46:08;95414.69;;;16.38;100.00
56038;BME280;41907;47.848;9.000;2023-07-29T02:48:33;95414.69;;;16.38;100.00
56038;BME280;41907;47.848;9.000;2023-07-29T02:50:58;95419.72;;;16.40;100.00
56038;BME280;41907;47.848;9.000;2023-07-29T02:53:24;95419.53;;;16.33;100.00
56038;BME280;41907;47.848;9.000;2023-07-29T02:55:50;95422.53;;;16.28;100.00
56038;BME280;41907;47.848;9.000;2023-07-29T02:58:15;95415.22;;;16.28;100.00
56038;BME280;41907;47.848;9.000;2023-07-29T03:00:41;95412.97;;;16.30;100.00
56038;BME280;41907;47.848;9.000;2023-07-29T03:03:09;95414.53;;;16.31;100.00
56038;BME280;41907;47.848;9.000;2023-07-29T03:05:35;95411.06;;;16.31;100.00
56038;BME280;41907;47.848;9.000;2023-07-29T03:08:00;95411.75;;;16.28;100.00
56038;BME280;41907;47.848;9.000;2023-07-29T03:10:26;95403.78;;;16.31;100.00
56038;BME280;41907;47.848;9.000;2023-07-29T03:12:54;95401.44;;;16.30;100.00
56038;BME280;41907;47.848;9.000;2023-07-29T03:15:23;95406.47;;;16.31;100.00
56038;BME280;41907;47.848;9.000;2023-07-29T03:17:50;95408.00;;;16.32;100.00
56038;BME280;41907;47.848;9.000;2023-07-29T03:20:15;95411.13;;;16.34;100.00
56038;BME280;41907;47.848;9.000;2023-07-29T03:22:43;95415.72;;;16.34;100.00
56038;BME280;41907;47.848;9.000;2023-07-29T03:25:08;95411.06;;;16.31;100.00
56038;BME280;41907;47.848;9.000;2023-07-29T03:27:33;95412.69;;;16.35;100.00
56038;BME280;41907;47.848;9.000;2023-07-29T03:30:02;95400.88;;;16.40;100.00
56038;BME280;41907;47.848;9.000;2023-07-29T03:32:27;95409.75;;;16.41;100.00
56038;BME280;41907;47.848;9.000;2023-07-29T03:34:52;95410.16;;;16.43;100.00
56038;BME280;41907;47.848;9.000;2023-07-29T03:37:18;95403.63;;;16.44;100.00
56038;BME280;41907;47.848;9.000;2023-07-29T03:39:43;95400.88;;;16.40;100.00
56038;BME280;41907;47.848;9.000;2023-07-29T03:42:08;95404.28;;;16.37;100.00
56038;BME280;41907;47.848;9.000;2023-07-29T03:44:34;95422.47;;;16.44;100.00
56038;BME280;41907;47.848;9.000;2023-07-29T03:47:00;95436.09;;;16.51;100.00
56038;BME280;41907;47.848;9.000;2023-07-29T03:49:26;95415.53;;;16.43;100.00
56038;BME280;41907;47.848;9.000;2023-07-29T03:51:51;95408.09;;;16.36;100.00
56038;BME280;41907;47.848;9.000;2023-07-29T03:54:16;95411.22;;;16.38;100.00
56038;BME280;41907;47.848;9.000;2023-07-29T03:56:41;95408.44;;;16.34;100.00
56038;BME280;41907;47.848;9.000;2023-07-29T03:59:07;95415.13;;;16.41;100.00
56038;BME280;41907;47.848;9.000;2023-07-29T04:01:32;95416.31;;;16.43;100.00
56038;BME280;41907;47.848;9.000;2023-07-29T04:03:58;95416.84;;;16.49;100.00
56038;BME280;41907;47.848;9.000;2023-07-29T04:06:24;95403.72;;;16.47;100.00
56038;BME280;41907;47.848;9.000;2023-07-29T04:08:49;95411.66;;;16.40;100.00
56038;BME280;41907;47.848;9.000;2023-07-29T04:11:15;95411.47;;;16.33;100.00
56038;BME280;41907;47.848;9.000;2023-07-29T04:13:40;95404.28;;;16.37;100.00
56038;BME280;41907;47.848;9.000;2023-07-29T04:16:06;95404.75;;;16.43;100.00
56038;BME280;41907;47.848;9.000;2023-07-29T04:18:32;95430.28;;;16.49;100.00
56038;BME280;41907;47.848;9.000;2023-07-29T04:20:57;95424.91;;;16.49;100.00
56038;BME280;41907;47.848;9.000;2023-07-29T04:23:22;95414.91;;;16.49;100.00
56038;BME280;41907;47.848;9.000;2023-07-29T04:25:48;95423.00;;;16.49;100.00
56038;BME280;41907;47.848;9.000;2023-07-29T04:28:15;95425.06;;;16.56;100.00
56038;BME280;41907;47.848;9.000;2023-07-29T04:30:40;95428.97;;;16.58;100.00
56038;BME280;41907;47.848;9.000;2023-07-29T04:33:06;95433.31;;;16.63;100.00
56038;BME280;41907;47.848;9.000;2023-07-29T04:35:31;95445.63;;;16.64;100.00
56038;BME280;41907;47.848;9.000;2023-07-29T04:37:56;95444.50;;;16.65;100.00
56038;BME280;41907;47.848;9.000;2023-07-29T04:40:22;95442.25;;;16.67;100.00
56038;BME280;41907;47.848;9.000;2023-07-29T04:42:49;95442.59;;;16.65;100.00
56038;BME280;41907;47.848;9.000;2023-07-29T04:45:14;95454.22;;;16.54;100.00
56038;BME280;41907;47.848;9.000;2023-07-29T04:47:41;95450.06;;;16.56;100.00
56038;BME280;41907;47.848;9.000;2023-07-29T04:50:07;95446.69;;;16.59;100.00
56038;BME280;41907;47.848;9.000;2023-07-29T04:52:32;95463.50;;;16.72;100.00
56038;BME280;41907;47.848;9.000;2023-07-29T04:54:58;95460.25;;;16.82;100.00
56038;BME280;41907;47.848;9.000;2023-07-29T04:57:23;95441.91;;;16.88;100.00
56038;BME280;41907;47.848;9.000;2023-07-29T04:59:49;95436.53;;;16.88;100.00
56038;BME280;41907;47.848;9.000;2023-07-29T05:02:14;95426.88;;;16.87;100.00
56038;BME280;41907;47.848;9.000;2023-07-29T05:04:40;95434.75;;;16.95;100.00
56038;BME280;41907;47.848;9.000;2023-07-29T05:07:05;95432.38;;;17.32;100.00
56038;BME280;41907;47.848;9.000;2023-07-29T05:09:31;95419.78;;;17.40;100.00
56038;BME280;41907;47.848;9.000;2023-07-29T05:11:56;95435.41;;;18.22;100.00
56038;BME280;41907;47.848;9.000;2023-07-29T05:14:22;95423.22;;;18.88;100.00
56038;BME280;41907;47.848;9.000;2023-07-29T05:16:47;95440.22;;;18.58;100.00
56038;BME280;41907;47.848;9.000;2023-07-29T05:19:13;95435.47;;;18.26;100.00
56038;BME280;41907;47.848;9.000;2023-07-29T05:21:39;95440.78;;;18.18;100.00
56038;BME280;41907;47.848;9.000;2023-07-29T05:24:04;95445.34;;;18.14;100.00
56038;BME280;41907;47.848;9.000;2023-07-29T05:26:30;95443.38;;;18.11;100.00
56038;BME280;41907;47.848;9.000;2023-07-29T05:28:55;95452.72;;;18.17;100.00
56038;BME280;41907;47.848;9.000;2023-07-29T05:31:21;95453.84;;;18.16;100.00
56038;BME280;41907;47.848;9.000;2023-07-29T05:33:47;95460.38;;;18.15;100.00
56038;BME280;41907;47.848;9.000;2023-07-29T05:36:12;95460.88;;;18.21;100.00
56038;BME280;41907;47.848;9.000;2023-07-29T05:38:38;95450.97;;;18.29;100.00
56038;BME280;41907;47.848;9.000;2023-07-29T05:41:03;95461.97;;;18.43;100.00
56038;BME280;41907;47.848;9.000;2023-07-29T05:43:28;95459.22;;;18.66;100.00
56038;BME280;41907;47.848;9.000;2023-07-29T05:45:54;95465.38;;;19.59;100.00
56038;BME280;41907;47.848;9.000;2023-07-29T05:48:19;95469.25;;;19.58;100.00
56038;BME280;41907;47.848;9.000;2023-07-29T05:50:45;95478.22;;;19.32;100.00
56038;BME280;41907;47.848;9.000;2023-07-29T05:53:10;95462.84;;;19.40;100.00
56038;BME280;41907;47.848;9.000;2023-07-29T05:55:36;95464.75;;;19.40;100.00
56038;BME280;41907;47.848;9.000;2023-07-29T05:58:01;95470.78;;;21.13;100.00
56038;BME280;41907;47.848;9.000;2023-07-29T06:00:26;95471.50;;;24.17;94.64
56038;BME280;41907;47.848;9.000;2023-07-29T06:02:52;95479.94;;;24.37;87.42
56038;BME280;41907;47.848;9.000;2023-07-29T06:05:17;95477.00;;;23.48;94.54
56038;BME280;41907;47.848;9.000;2023-07-29T06:07:44;95469.72;;;25.27;86.21
56038;BME280;41907;47.848;9.000;2023-07-29T06:10:12;95467.88;;;27.21;72.18
56038;BME280;41907;47.848;9.000;2023-07-29T06:12:38;95471.41;;;28.62;64.98
56038;BME280;41907;47.848;9.000;2023-07-29T06:15:04;95478.84;;;28.12;63.55
56038;BME280;41907;47.848;9.000;2023-07-29T06:17:30;95487.75;;;25.17;77.63
56038;BME280;41907;47.848;9.000;2023-07-29T06:19:55;95483.97;;;23.56;88.65
56038;BME280;41907;47.848;9.000;2023-07-29T06:22:21;95481.09;;;22.65;95.19
56038;BME280;41907;47.848;9.000;2023-07-29T06:24:46;95464.06;;;22.25;96.69
56038;BME280;41907;47.848;9.000;2023-07-29T06:27:11;95472.22;;;22.15;98.98
56038;BME280;41907;47.848;9.000;2023-07-29T06:29:37;95471.00;;;22.69;96.93
56038;BME280;41907;47.848;9.000;2023-07-29T06:32:02;95474.88;;;25.82;83.27
56038;BME280;41907;47.848;9.000;2023-07-29T06:34:28;95480.38;;;27.61;69.38
56038;BME280;41907;47.848;9.000;2023-07-29T06:36:53;95481.16;;;28.14;67.94
56038;BME280;41907;47.848;9.000;2023-07-29T06:39:20;95478.44;;;27.78;67.12
56038;BME280;41907;47.848;9.000;2023-07-29T06:41:45;95485.91;;;27.94;66.66
56038;BME280;41907;47.848;9.000;2023-07-29T06:44:11;95494.91;;;28.63;62.89
56038;BME280;41907;47.848;9.000;2023-07-29T06:46:36;95499.66;;;29.07;63.42
56038;BME280;41907;47.848;9.000;2023-07-29T06:49:01;95500.53;;;29.62;60.72
56038;BME280;41907;47.848;9.000;2023-07-29T06:51:27;95484.63;;;29.12;60.33
56038;BME280;41907;47.848;9.000;2023-07-29T06:53:54;95493.97;;;29.72;57.87
56038;BME280;41907;47.848;9.000;2023-07-29T06:56:19;95488.81;;;28.55;61.79
56038;BME280;41907;47.848;9.000;2023-07-29T06:58:45;95493.06;;;28.07;63.69
56038;BME280;41907;47.848;9.000;2023-07-29T07:01:10;95486.41;;;27.72;66.13
56038;BME280;41907;47.848;9.000;2023-07-29T07:03:35;95476.34;;;26.40;70.02
56038;BME280;41907;47.848;9.000;2023-07-29T07:06:01;95473.53;;;25.67;75.80
56038;BME280;41907;47.848;9.000;2023-07-29T07:08:26;95474.25;;;25.06;78.91
56038;BME280;41907;47.848;9.000;2023-07-29T07:10:52;95463.81;;;24.57;82.88
56038;BME280;41907;47.848;9.000;2023-07-29T07:13:17;95471.81;;;24.33;84.12
56038;BME280;41907;47.848;9.000;2023-07-29T07:15:42;95479.56;;;24.35;86.77
56038;BME280;41907;47.848;9.000;2023-07-29T07:18:08;95476.94;;;24.21;87.35
56038;BME280;41907;47.848;9.000;2023-07-29T07:20:34;95478.31;;;25.55;81.70
56038;BME280;41907;47.848;9.000;2023-07-29T07:22:59;95475.31;;;27.40;71.74
56038;BME280;41907;47.848;9.000;2023-07-29T07:25:25;95468.38;;;27.16;67.17
56038;BME280;41907;47.848;9.000;2023-07-29T07:27:50;95467.44;;;27.22;65.78
56038;BME280;41907;47.848;9.000;2023-07-29T07:30:16;95467.84;;;27.80;63.38
56038;BME280;41907;47.848;9.000;2023-07-29T07:32:41;95461.03;;;26.89;69.06
56038;BME280;41907;47.848;9.000;2023-07-29T07:35:07;95464.63;;;26.63;66.96
56038;BME280;41907;47.848;9.000;2023-07-29T07:37:32;95455.13;;;26.48;74.54
56038;BME280;41907;47.848;9.000;2023-07-29T07:39:58;95461.63;;;27.60;69.40
56038;BME280;41907;47.848;9.000;2023-07-29T07:42:23;95465.22;;;28.09;63.96
56038;BME280;41907;47.848;9.000;2023-07-29T07:44:49;95459.41;;;28.56;62.93
56038;BME280;41907;47.848;9.000;2023-07-29T07:47:14;95467.88;;;27.60;65.49
56038;BME280;41907;47.848;9.000;2023-07-29T07:49:39;95460.72;;;27.07;67.07
56038;BME280;41907;47.848;9.000;2023-07-29T07:52:05;95468.44;;;26.46;69.00
56038;BME280;41907;47.848;9.000;2023-07-29T07:54:30;95465.59;;;26.03;69.46
56038;BME280;41907;47.848;9.000;2023-07-29T07:56:56;95468.09;;;25.63;72.65
56038;BME280;41907;47.848;9.000;2023-07-29T07:59:21;95463.63;;;26.03;73.12
56038;BME280;41907;47.848;9.000;2023-07-29T08:01:46;95460.44;;;26.78;71.89
56038;BME280;41907;47.848;9.000;2023-07-29T08:04:12;95467.72;;;26.65;69.70
56038;BME280;41907;47.848;9.000;2023-07-29T08:06:37;95464.94;;;26.68;68.76
56038;BME280;41907;47.848;9.000;2023-07-29T08:09:03;95462.41;;;26.78;68.39
56038;BME280;41907;47.848;9.000;2023-07-29T08:11:28;95468.00;;;27.33;67.67
56038;BME280;41907;47.848;9.000;2023-07-29T08:13:54;95464.19;;;27.47;66.91
56038;BME280;41907;47.848;9.000;2023-07-29T08:16:19;95472.16;;;27.61;63.98
56038;BME280;41907;47.848;9.000;2023-07-29T08:18:44;95462.75;;;27.42;65.35
56038;BME280;41907;47.848;9.000;2023-07-29T08:21:10;95465.38;;;27.46;66.57
56038;BME280;41907;47.848;9.000;2023-07-29T08:23:36;95467.84;;;27.80;65.63
56038;BME280;41907;47.848;9.000;2023-07-29T08:26:03;95468.47;;;28.04;64.13
56038;BME280;41907;47.848;9.000;2023-07-29T08:28:33;95461.91;;;28.18;62.31
56038;BME280;41907;47.848;9.000;2023-07-29T08:30:59;95462.25;;;28.20;65.26
56038;BME280;41907;47.848;9.000;2023-07-29T08:33:25;95456.16;;;28.12;62.22
56038;BME280;41907;47.848;9.000;2023-07-29T08:35:50;95460.25;;;28.52;60.90
56038;BME280;41907;47.848;9.000;2023-07-29T08:38:16;95461.78;;;28.05;62.30
56038;BME280;41907;47.848;9.000;2023-07-29T08:40:46;95457.31;;;27.95;62.42
56038;BME280;41907;47.848;9.000;2023-07-29T08:43:15;95455.38;;;27.20;64.49
56038;BME280;41907;47.848;9.000;2023-07-29T08:45:43;95466.63;;;27.06;67.85
56038;BME280;41907;47.848;9.000;2023-07-29T08:48:10;95458.03;;;27.23;66.10
56038;BME280;41907;47.848;9.000;2023-07-29T08:50:36;95465.25;;;27.53;65.85
56038;BME280;41907;47.848;9.000;2023-07-29T08:53:05;95467.47;;;27.78;63.70
56038;BME280;41907;47.848;9.000;2023-07-29T08:55:31;95476.97;;;28.09;64.96
56038;BME280;41907;47.848;9.000;2023-07-29T08:57:58;95465.59;;;28.27;64.42
56038;BME280;41907;47.848;9.000;2023-07-29T09:00:25;95461.44;;;28.03;60.96
56038;BME280;41907;47.848;9.000;2023-07-29T09:02:51;95465.59;;;28.43;62.65
56038;BME280;41907;47.848;9.000;2023-07-29T09:05:17;95465.41;;;28.50;62.41
56038;BME280;41907;47.848;9.000;2023-07-29T09:07:44;95459.94;;;28.34;61.26
56038;BME280;41907;47.848;9.000;2023-07-29T09:10:10;95457.13;;;28.38;62.61
56038;BME280;41907;47.848;9.000;2023-07-29T09:12:38;95457.28;;;28.31;62.77
56038;BME280;41907;47.848;9.000;2023-07-29T09:15:04;95442.50;;;28.08;60.77
56038;BME280;41907;47.848;9.000;2023-07-29T09:17:32;95449.19;;;28.07;61.53
56038;BME280;41907;47.848;9.000;2023-07-29T09:19:58;95447.53;;;28.30;59.99
56038;BME280;41907;47.848;9.000;2023-07-29T09:22:23;95449.09;;;28.60;62.57
56038;BME280;41907;47.848;9.000;2023-07-29T09:24:50;95451.09;;;29.04;58.83
56038;BME280;41907;47.848;9.000;2023-07-29T09:27:26;95455.06;;;29.03;58.14
56038;BME280;41907;47.848;9.000;2023-07-29T09:29:52;95448.44;;;28.56;58.90
56038;BME280;41907;47.848;9.000;2023-07-29T09:32:22;95448.31;;;28.75;61.78
56038;BME280;41907;47.848;9.000;2023-07-29T09:34:47;95447.59;;;29.04;57.63
56038;BME280;41907;47.848;9.000;2023-07-29T09:37:22;95448.00;;;29.31;56.31
56038;BME280;41907;47.848;9.000;2023-07-29T09:39:49;95443.91;;;29.52;57.81
56038;BME280;41907;47.848;9.000;2023-07-29T09:42:22;95435.34;;;29.75;56.11
56038;BME280;41907;47.848;9.000;2023-07-29T09:44:49;95441.84;;;29.81;57.67
56038;BME280;41907;47.848;9.000;2023-07-29T09:47:33;95446.44;;;29.84;55.48
56038;BME280;41907;47.848;9.000;2023-07-29T09:49:59;95439.19;;;29.23;55.41
56038;BME280;41907;47.848;9.000;2023-07-29T09:52:25;95439.91;;;29.40;56.69
56038;BME280;41907;47.848;9.000;2023-07-29T09:54:50;95430.94;;;29.65;54.50
56038;BME280;41907;47.848;9.000;2023-07-29T09:57:17;95425.75;;;29.67;55.02
56038;BME280;41907;47.848;9.000;2023-07-29T09:59:43;95431.47;;;29.73;53.90
56038;BME280;41907;47.848;9.000;2023-07-29T10:02:14;95429.84;;;29.75;54.50
56038;BME280;41907;47.848;9.000;2023-07-29T10:04:43;95428.53;;;30.05;56.19
56038;BME280;41907;47.848;9.000;2023-07-29T10:07:12;95420.03;;;30.25;55.61
56038;BME280;41907;47.848;9.000;2023-07-29T10:09:40;95427.72;;;30.30;51.75
56038;BME280;41907;47.848;9.000;2023-07-29T10:12:06;95419.94;;;29.78;51.33
56038;BME280;41907;47.848;9.000;2023-07-29T10:14:33;95424.88;;;30.33;52.86
56038;BME280;41907;47.848;9.000;2023-07-29T10:16:59;95405.09;;;30.73;52.00
56038;BME280;41907;47.848;9.000;2023-07-29T10:19:25;95410.31;;;30.46;51.24
56038;BME280;41907;47.848;9.000;2023-07-29T10:21:52;95414.13;;;30.01;48.45
56038;BME280;41907;47.848;9.000;2023-07-29T10:24:24;95416.13;;;30.01;52.52
56038;BME280;41907;47.848;9.000;2023-07-29T10:26:59;95417.41;;;30.21;51.22
56038;BME280;41907;47.848;9.000;2023-07-29T10:29:29;95415.81;;;30.58;51.35
56038;BME280;41907;47.848;9.000;2023-07-29T10:31:57;95418.69;;;30.55;50.47
56038;BME280;41907;47.848;9.000;2023-07-29T10:34:23;95412.75;;;30.44;51.26
56038;BME280;41907;47.848;9.000;2023-07-29T10:36:50;95415.97;;;29.91;51.46
56038;BME280;41907;47.848;9.000;2023-07-29T10:39:16;95420.84;;;30.00;53.22
56038;BME280;41907;47.848;9.000;2023-07-29T10:42:00;95406.06;;;30.32;49.78
56038;BME280;41907;47.848;9.000;2023-07-29T10:47:12;95403.97;;;29.73;50.60
56038;BME280;41907;47.848;9.000;2023-07-29T10:49:44;95403.59;;;30.00;48.39
56038;BME280;41907;47.848;9.000;2023-07-29T10:52:14;95406.84;;;29.44;50.11
56038;BME280;41907;47.848;9.000;2023-07-29T10:57:13;95402.56;;;29.68;51.30
56038;BME280;41907;47.848;9.000;2023-07-29T10:59:40;95402.78;;;29.61;50.52
56038;BME280;41907;47.848;9.000;2023-07-29T11:02:17;95395.03;;;29.31;49.67
56038;BME280;41907;47.848;9.000;2023-07-29T11:04:47;95392.56;;;29.49;51.60
56038;BME280;41907;47.848;9.000;2023-07-29T11:14:57;95375.34;;;28.78;50.48
56038;BME280;41907;47.848;9.000;2023-07-29T11:17:23;95382.69;;;29.10;47.19
56038;BME280;41907;47.848;9.000;2023-07-29T11:19:49;95387.38;;;29.38;48.58
56038;BME280;41907;47.848;9.000;2023-07-29T11:22:15;95377.38;;;29.57;46.53
56038;BME280;41907;47.848;9.000;2023-07-29T11:24:41;95374.97;;;29.72;45.72
56038;BME280;41907;47.848;9.000;2023-07-29T11:27:11;95382.91;;;29.70;43.90
56038;BME280;41907;47.848;9.000;2023-07-29T11:29:36;95380.91;;;29.95;44.59
56038;BME280;41907;47.848;9.000;2023-07-29T11:32:02;95375.50;;;30.17;42.89
56038;BME280;41907;47.848;9.000;2023-07-29T11:34:34;95360.31;;;30.13;41.84
56038;BME280;41907;47.848;9.000;2023-07-29T11:36:59;95372.84;;;30.14;41.99
56038;BME280;41907;47.848;9.000;2023-07-29T11:39:25;95368.97;;;29.22;43.38
56038;BME280;41907;47.848;9.000;2023-07-29T11:41:50;95362.91;;;28.73;44.64
56038;BME280;41907;47.848;9.000;2023-07-29T11:44:18;95361.47;;;28.40;45.53
56038;BME280;41907;47.848;9.000;2023-07-29T11:46:44;95341.66;;;27.67;46.81
56038;BME280;41907;47.848;9.000;2023-07-29T11:49:10;95351.44;;;27.32;47.54
56038;BME280;41907;47.848;9.000;2023-07-29T11:51:38;95361.28;;;27.30;48.34
56038;BME280;41907;47.848;9.000;2023-07-29T11:54:04;95347.75;;;27.23;50.37
56038;BME280;41907;47.848;9.000;2023-07-29T11:56:30;95343.16;;;27.36;50.18
56038;BME280;41907;47.848;9.000;2023-07-29T11:58:56;95347.16;;;27.67;49.86
56038;BME280;41907;47.848;9.000;2023-07-29T12:01:22;95351.34;;;27.88;51.24
56038;BME280;41907;47.848;9.000;2023-07-29T12:03:49;95350.81;;;27.93;50.00
56038;BME280;41907;47.848;9.000;2023-07-29T12:06:15;95346.03;;;27.97;49.19
56038;BME280;41907;47.848;9.000;2023-07-29T12:08:42;95329.38;;;28.37;48.02
56038;BME280;41907;47.848;9.000;2023-07-29T12:11:08;95335.31;;;28.64;49.26
56038;BME280;41907;47.848;9.000;2023-07-29T12:13:36;95333.44;;;28.90;51.40
56038;BME280;41907;47.848;9.000;2023-07-29T12:16:02;95334.41;;;28.55;50.33
56038;BME280;41907;47.848;9.000;2023-07-29T12:18:36;95342.78;;;27.70;50.93
56038;BME280;41907;47.848;9.000;2023-07-29T12:21:02;95348.47;;;27.27;53.97
56038;BME280;41907;47.848;9.000;2023-07-29T12:23:28;95356.81;;;27.00;55.41
56038;BME280;41907;47.848;9.000;2023-07-29T12:25:58;95365.53;;;26.75;53.72
56038;BME280;41907;47.848;9.000;2023-07-29T12:28:28;95363.91;;;26.58;58.22
56038;BME280;41907;47.848;9.000;2023-07-29T12:30:54;95371.94;;;26.45;58.33
56038;BME280;41907;47.848;9.000;2023-07-29T12:33:34;95371.19;;;26.21;57.39
56038;BME280;41907;47.848;9.000;2023-07-29T12:36:00;95382.00;;;26.28;57.65
56038;BME280;41907;47.848;9.000;2023-07-29T12:38:26;95377.97;;;26.37;56.35
56038;BME280;41907;47.848;9.000;2023-07-29T12:40:51;95385.97;;;26.01;61.10
56038;BME280;41907;47.848;9.000;2023-07-29T12:43:17;95372.94;;;26.08;63.40
56038;BME280;41907;47.848;9.000;2023-07-29T12:45:42;95383.94;;;26.05;65.04
56038;BME280;41907;47.848;9.000;2023-07-29T12:48:09;95387.81;;;26.07;65.66
56038;BME280;41907;47.848;9.000;2023-07-29T12:50:35;95391.84;;;25.76;66.37
56038;BME280;41907;47.848;9.000;2023-07-29T12:53:00;95389.31;;;25.58;66.84
56038;BME280;41907;47.848;9.000;2023-07-29T12:55:25;95401.09;;;25.55;67.09
56038;BME280;41907;47.848;9.000;2023-07-29T12:57:51;95402.81;;;25.42;67.69
56038;BME280;41907;47.848;9.000;2023-07-29T13:00:17;95404.59;;;25.25;68.73
56038;BME280;41907;47.848;9.000;2023-07-29T13:02:42;95403.88;;;25.21;69.01
56038;BME280;41907;47.848;9.000;2023-07-29T13:05:11;95402.88;;;25.08;69.88
56038;BME280;41907;47.848;9.000;2023-07-29T13:07:40;95396.16;;;25.16;68.99
56038;BME280;41907;47.848;9.000;2023-07-29T13:10:06;95399.66;;;25.16;68.35
56038;BME280;41907;47.848;9.000;2023-07-29T13:12:32;95402.88;;;25.08;66.93
56038;BME280;41907;47.848;9.000;2023-07-29T13:14:57;95398.91;;;25.12;66.86